createdAt,value
2023-01-15T00:01:36.055Z,80.48
2023-01-15T00:04:03.780Z,80.26
2023-01-15T00:06:30.678Z,80.29
2023-01-15T00:08:57.157Z,79.59
2023-01-15T00:11:23.631Z,79.81
2023-01-15T00:13:50.937Z,79.94
2023-01-15T00:16:19.184Z,79.77
2023-01-15T00:18:52.514Z,79.94
2023-01-15T00:21:20.007Z,79.05
2023-01-15T00:24:04.821Z,79.22
2023-01-15T00:26:50.516Z,79.04
2023-01-15T00:29:17.589Z,78.67
2023-01-15T00:31:45.497Z,78.70
2023-01-15T00:34:11.918Z,78.42
2023-01-15T00:36:38.346Z,78.62
2023-01-15T00:39:04.829Z,78.72
2023-01-15T00:41:31.317Z,78.39
2023-01-15T00:43:57.729Z,78.01
2023-01-15T00:46:24.134Z,78.03
2023-01-15T00:48:50.579Z,77.99
2023-01-15T00:51:17.061Z,78.23
2023-01-15T00:53:43.424Z,77.44
2023-01-15T00:56:09.958Z,78.00
2023-01-15T00:58:36.323Z,77.81
2023-01-15T01:01:02.892Z,77.22
2023-01-15T01:03:29.524Z,76.83
2023-01-15T01:06:00.031Z,76.84
2023-01-15T01:08:26.352Z,76.79
2023-01-15T01:11:01.202Z,76.65
2023-01-15T01:13:27.745Z,76.39
2023-01-15T01:15:54.165Z,76.97
2023-01-15T01:18:20.509Z,76.17
2023-01-15T01:20:46.888Z,75.91
2023-01-15T01:23:13.238Z,76.17
2023-01-15T01:25:39.576Z,75.87
2023-01-15T01:28:05.972Z,75.42
2023-01-15T01:30:32.345Z,75.63
2023-01-15T01:32:58.976Z,75.79
2023-01-15T01:35:25.618Z,75.97
2023-01-15T01:37:52.667Z,76.12
2023-01-15T01:40:19.348Z,75.96
2023-01-15T01:42:46.588Z,75.94
2023-01-15T01:45:18.636Z,75.27
2023-01-15T01:47:46.213Z,76.04
2023-01-15T01:50:13.435Z,75.87
2023-01-15T01:52:42.632Z,76.25
2023-01-15T01:55:09.773Z,75.86
2023-01-15T01:57:37.865Z,76.33
2023-01-15T02:00:06.813Z,75.88
2023-01-15T02:02:33.677Z,76.66
2023-01-15T02:05:00.933Z,75.68
2023-01-15T02:07:27.724Z,75.63
2023-01-15T02:09:54.065Z,75.24
2023-01-15T02:12:26.857Z,75.77
2023-01-15T02:15:03.061Z,75.16
2023-01-15T02:17:35.529Z,75.17
2023-01-15T02:20:05.169Z,74.75
2023-01-15T02:22:40.914Z,75.01
2023-01-15T02:25:24.633Z,75.10
2023-01-15T02:28:10.352Z,75.60
2023-01-15T02:30:42.445Z,74.88
2023-01-15T02:33:14.977Z,75.80
2023-01-15T02:36:01.606Z,74.59
2023-01-15T02:38:32.050Z,75.23
2023-01-15T02:41:01.049Z,74.68
2023-01-15T02:43:29.448Z,74.70
2023-01-15T02:45:58.208Z,74.28
2023-01-15T02:48:26.378Z,75.03
2023-01-15T02:50:55.877Z,73.61
2023-01-15T02:53:25.754Z,73.30
2023-01-15T02:55:54.068Z,73.92
2023-01-15T02:58:23.412Z,73.72
2023-01-15T03:00:52.348Z,73.92
2023-01-15T03:03:23.947Z,74.28
2023-01-15T03:06:13.854Z,74.01
2023-01-15T03:08:40.376Z,74.28
2023-01-15T03:11:11.221Z,75.37
2023-01-15T03:13:52.808Z,75.56
2023-01-15T03:16:39.901Z,75.58
2023-01-15T03:19:38.499Z,75.85
2023-01-15T03:22:11.997Z,76.08
2023-01-15T03:24:47.142Z,75.93
2023-01-15T03:27:14.226Z,76.75
2023-01-15T03:29:45.725Z,76.56
2023-01-15T03:32:12.261Z,76.66
2023-01-15T03:34:46.370Z,76.09
2023-01-15T03:37:13.382Z,75.73
2023-01-15T03:39:40.156Z,76.64
2023-01-15T03:42:12.301Z,76.06
2023-01-15T03:44:38.648Z,76.05
2023-01-15T03:47:18.298Z,75.18
2023-01-15T03:49:50.877Z,75.84
2023-01-15T03:52:24.427Z,75.69
2023-01-15T03:54:59.446Z,75.06
2023-01-15T03:57:43.524Z,75.59
2023-01-15T04:00:13.469Z,75.89
2023-01-15T04:02:40.527Z,76.13
2023-01-15T04:05:07.253Z,75.49
2023-01-15T04:07:33.654Z,75.66
2023-01-15T04:10:00.112Z,76.43
2023-01-15T04:12:28.073Z,76.59
2023-01-15T04:14:54.420Z,76.19
2023-01-15T04:17:20.717Z,75.79
2023-01-15T04:19:47.050Z,74.66
2023-01-15T04:22:13.410Z,74.71
2023-01-15T04:24:39.760Z,74.13
2023-01-15T04:27:06.120Z,74.15
2023-01-15T04:29:32.540Z,73.43
2023-01-15T04:31:58.906Z,73.60
2023-01-15T04:34:26.651Z,73.30
2023-01-15T04:36:53.368Z,73.23
2023-01-15T04:39:19.880Z,73.67
2023-01-15T04:42:12.224Z,73.80
2023-01-15T04:44:38.793Z,73.22
2023-01-15T04:47:05.508Z,73.06
2023-01-15T04:49:32.228Z,72.85
2023-01-15T04:51:58.626Z,73.15
2023-01-15T04:54:25.285Z,73.03
2023-01-15T04:56:52.598Z,72.97
2023-01-15T04:59:20.403Z,72.76
2023-01-15T05:02:01.910Z,73.03
2023-01-15T05:04:30.243Z,72.48
2023-01-15T05:06:56.673Z,72.33
2023-01-15T05:09:23.094Z,72.67
2023-01-15T05:11:49.486Z,72.69
2023-01-15T05:14:15.897Z,72.53
2023-01-15T05:16:42.345Z,73.32
2023-01-15T05:19:09.825Z,73.21
2023-01-15T05:21:37.619Z,73.17
2023-01-15T05:24:05.288Z,73.37
2023-01-15T05:26:32.732Z,73.70
2023-01-15T05:29:00.152Z,73.64
2023-01-15T05:31:27.153Z,74.01
2023-01-15T05:33:54.264Z,74.35
2023-01-15T05:36:22.397Z,74.38
2023-01-15T05:38:48.745Z,74.05
2023-01-15T05:41:34.991Z,74.13
2023-01-15T05:44:02.983Z,74.60
2023-01-15T05:46:29.398Z,74.38
2023-01-15T05:49:00.036Z,74.88
2023-01-15T05:51:26.500Z,75.13
2023-01-15T05:53:52.852Z,75.62
2023-01-15T05:56:19.261Z,75.00
2023-01-15T05:58:45.705Z,75.49
2023-01-15T06:01:12.139Z,75.35
2023-01-15T06:03:38.557Z,74.31
2023-01-15T06:06:04.947Z,73.91
2023-01-15T06:08:31.311Z,74.30
2023-01-15T06:10:57.692Z,74.43
2023-01-15T06:13:24.208Z,74.07
2023-01-15T06:15:50.686Z,74.11
2023-01-15T06:18:17.099Z,74.01
2023-01-15T06:20:43.474Z,73.51
2023-01-15T06:23:10.026Z,73.47
2023-01-15T06:25:37.195Z,73.46
2023-01-15T06:28:04.573Z,73.37
2023-01-15T06:30:30.908Z,73.29
2023-01-15T06:32:57.411Z,73.49
2023-01-15T06:35:23.804Z,73.57
2023-01-15T06:37:50.627Z,73.80
2023-01-15T06:40:17.177Z,73.99
2023-01-15T06:43:02.419Z,74.32
2023-01-15T06:45:51.547Z,74.79
2023-01-15T06:48:18.975Z,74.38
2023-01-15T06:50:45.342Z,74.84
2023-01-15T06:53:11.969Z,74.45
2023-01-15T06:55:38.267Z,74.28
2023-01-15T06:58:04.688Z,74.22
2023-01-15T07:00:31.249Z,74.78
2023-01-15T07:03:01.277Z,74.07
2023-01-15T07:05:27.984Z,73.55
2023-01-15T07:07:54.521Z,72.92
2023-01-15T07:10:20.947Z,72.57
2023-01-15T07:12:47.327Z,72.96
2023-01-15T07:15:13.701Z,72.73
2023-01-15T07:17:40.151Z,71.93
2023-01-15T07:20:06.897Z,72.63
2023-01-15T07:22:33.301Z,72.56
2023-01-15T07:24:59.858Z,72.66
2023-01-15T07:27:26.228Z,71.69
2023-01-15T07:29:52.697Z,70.73
2023-01-15T07:32:19.054Z,70.69
2023-01-15T07:34:45.432Z,69.76
2023-01-15T07:37:11.813Z,69.60
2023-01-15T07:39:38.222Z,68.23
2023-01-15T07:42:23.376Z,67.95
2023-01-15T07:45:08.426Z,67.26
2023-01-15T07:47:53.710Z,66.79
2023-01-15T07:50:21.747Z,66.03
2023-01-15T07:52:55.487Z,66.33
2023-01-15T07:55:22.623Z,65.90
2023-01-15T07:57:49.112Z,66.00
2023-01-15T08:00:19.106Z,66.16
2023-01-15T08:02:49.516Z,66.15
2023-01-15T08:05:16.128Z,66.16
2023-01-15T08:07:42.962Z,66.00
2023-01-15T08:10:13.526Z,66.91
2023-01-15T08:12:58.795Z,67.67
2023-01-15T08:15:25.541Z,68.16
2023-01-15T08:17:52.417Z,68.48
2023-01-15T08:20:23.114Z,68.76
2023-01-15T08:22:49.595Z,69.29
2023-01-15T08:25:17.355Z,68.86
2023-01-15T08:27:43.955Z,69.15
2023-01-15T08:30:14.977Z,68.08
2023-01-15T08:32:41.351Z,68.65
2023-01-15T08:35:08.318Z,68.05
2023-01-15T08:37:35.044Z,68.37
2023-01-15T08:40:01.585Z,67.73
2023-01-15T08:42:28.336Z,67.83
2023-01-15T08:44:57.654Z,66.84
2023-01-15T08:47:24.133Z,67.22
2023-01-15T08:49:50.558Z,66.07
2023-01-15T08:52:17.035Z,66.95
2023-01-15T08:54:43.780Z,65.73
2023-01-15T08:57:12.011Z,66.18
2023-01-15T08:59:38.662Z,65.94
2023-01-15T09:02:05.424Z,64.80
2023-01-15T09:04:31.859Z,64.89
2023-01-15T09:06:58.529Z,64.90
2023-01-15T09:09:24.970Z,65.70
2023-01-15T09:11:51.340Z,66.46
2023-01-15T09:14:56.764Z,66.09
2023-01-15T09:17:04.003Z,65.70
2023-01-15T09:19:30.469Z,65.21
2023-01-15T09:21:57.158Z,65.43
2023-01-15T09:24:23.565Z,65.64
2023-01-15T09:26:53.124Z,65.78
2023-01-15T09:29:19.978Z,65.60
2023-01-15T09:31:46.741Z,66.86
2023-01-15T09:34:13.339Z,70.89
2023-01-15T09:36:41.305Z,73.38
2023-01-15T09:39:07.957Z,74.95
2023-01-15T09:42:07.887Z,76.24
2023-01-15T09:44:56.000Z,76.56
2023-01-15T09:47:27.487Z,77.10
2023-01-15T09:50:12.620Z,76.88
2023-01-15T09:52:54.392Z,77.57
2023-01-15T09:55:27.833Z,78.11
2023-01-15T09:57:55.347Z,77.65
2023-01-15T10:00:24.026Z,77.76
2023-01-15T10:02:53.130Z,77.78
2023-01-15T10:05:22.032Z,77.06
2023-01-15T10:07:56.959Z,78.41
2023-01-15T10:10:26.995Z,77.43
2023-01-15T10:12:57.576Z,77.03
2023-01-15T10:15:27.569Z,76.07
2023-01-15T10:17:56.839Z,75.83
2023-01-15T10:20:23.176Z,75.81
2023-01-15T10:22:52.350Z,75.91
2023-01-15T10:25:22.446Z,75.64
2023-01-15T10:27:51.106Z,74.49
2023-01-15T10:30:21.648Z,74.03
2023-01-15T10:33:01.954Z,74.84
2023-01-15T10:35:38.496Z,74.66
2023-01-15T10:38:04.792Z,74.40
2023-01-15T10:40:40.785Z,74.88
2023-01-15T10:43:16.091Z,74.47
2023-01-15T10:45:47.770Z,75.87
2023-01-15T10:48:32.473Z,75.52
2023-01-15T10:51:02.205Z,75.55
2023-01-15T10:53:45.298Z,75.17
2023-01-15T10:56:30.587Z,74.79
2023-01-15T10:59:05.137Z,75.93
2023-01-15T11:01:32.097Z,77.14
2023-01-15T11:04:00.735Z,76.89
2023-01-15T11:06:30.844Z,75.98
2023-01-15T11:09:13.902Z,76.61
2023-01-15T11:11:58.984Z,76.36
2023-01-15T11:15:10.361Z,76.35
2023-01-15T11:17:56.947Z,75.20
2023-01-15T11:20:31.669Z,74.56
2023-01-15T11:23:06.263Z,74.80
2023-01-15T11:25:33.042Z,74.49
2023-01-15T11:28:00.800Z,75.04
2023-01-15T11:30:28.852Z,74.76
2023-01-15T11:32:59.082Z,74.56
2023-01-15T11:35:25.998Z,73.76
2023-01-15T11:38:14.665Z,72.66
2023-01-15T11:40:53.417Z,71.81
2023-01-15T11:43:40.066Z,70.84
2023-01-15T11:46:43.233Z,69.18
2023-01-15T11:49:45.596Z,69.72
2023-01-15T11:52:16.875Z,69.27
2023-01-15T11:54:44.827Z,69.67
2023-01-15T11:57:11.351Z,68.68
2023-01-15T11:59:38.157Z,68.10
2023-01-15T12:02:15.324Z,68.26
2023-01-15T12:04:49.563Z,69.05
2023-01-15T12:07:16.333Z,68.95
2023-01-15T12:09:42.671Z,69.05
2023-01-15T12:12:35.659Z,69.36
2023-01-15T12:15:08.025Z,70.98
2023-01-15T12:17:54.618Z,72.54
2023-01-15T12:20:38.909Z,72.96
2023-01-15T12:23:05.844Z,72.89
2023-01-15T12:25:45.162Z,74.06
2023-01-15T12:28:18.349Z,73.69
2023-01-15T12:30:54.887Z,72.83
2023-01-15T12:33:53.596Z,73.15
2023-01-15T12:36:22.769Z,72.71
2023-01-15T12:38:55.819Z,71.57
2023-01-15T12:41:54.699Z,71.23
2023-01-15T12:44:45.453Z,70.60
2023-01-15T12:47:14.819Z,70.25
2023-01-15T12:49:46.194Z,70.28
2023-01-15T12:52:16.109Z,70.33
2023-01-15T12:54:49.386Z,70.77
2023-01-15T12:57:17.896Z,70.33
2023-01-15T13:00:02.618Z,71.21
2023-01-15T13:03:01.394Z,71.76
2023-01-15T13:05:41.645Z,73.61
2023-01-15T13:08:19.434Z,74.22
2023-01-15T13:10:48.973Z,75.13
2023-01-15T13:13:16.516Z,75.32
2023-01-15T13:15:51.462Z,75.57
2023-01-15T13:18:24.285Z,76.87
2023-01-15T13:20:51.390Z,77.10
2023-01-15T13:23:35.544Z,76.75
2023-01-15T13:26:19.633Z,77.29
2023-01-15T13:29:04.355Z,77.51
2023-01-15T13:31:40.470Z,76.40
2023-01-15T13:34:11.947Z,76.04
2023-01-15T13:36:41.254Z,76.94
2023-01-15T13:39:12.907Z,76.24
2023-01-15T13:41:57.977Z,76.02
2023-01-15T13:44:32.027Z,76.55
2023-01-15T13:47:04.444Z,75.95
2023-01-15T13:49:41.740Z,75.65
2023-01-15T13:52:19.100Z,75.12
2023-01-15T13:54:45.645Z,74.68
2023-01-15T13:57:24.228Z,74.84
2023-01-15T13:59:50.796Z,73.67
2023-01-15T14:02:24.751Z,73.77
2023-01-15T14:04:51.538Z,73.76
2023-01-15T14:07:23.665Z,74.17
2023-01-15T14:09:50.472Z,74.19
2023-01-15T14:12:27.619Z,75.43
2023-01-15T14:14:53.943Z,75.43
2023-01-15T14:17:20.293Z,75.81
2023-01-15T14:19:46.632Z,76.53
2023-01-15T14:22:12.986Z,76.33
2023-01-15T14:24:57.976Z,77.07
2023-01-15T14:27:24.341Z,77.15
2023-01-15T14:30:09.629Z,76.74
2023-01-15T14:32:53.529Z,77.07
2023-01-15T14:35:21.428Z,77.41
2023-01-15T14:37:51.384Z,78.36
2023-01-15T14:40:20.844Z,78.30
2023-01-15T14:43:01.362Z,79.73
2023-01-15T14:45:32.618Z,80.83
2023-01-15T14:48:00.110Z,81.19
2023-01-15T14:50:33.403Z,82.70
2023-01-15T14:53:05.457Z,82.97
2023-01-15T14:55:32.352Z,83.00
2023-01-15T14:57:58.688Z,82.89
2023-01-15T15:00:29.334Z,83.00
2023-01-15T15:02:57.239Z,83.05
2023-01-15T15:05:25.101Z,82.40
2023-01-15T15:07:55.313Z,82.75
2023-01-15T15:10:26.864Z,83.58
2023-01-15T15:13:17.696Z,83.38
2023-01-15T15:15:50.230Z,82.91
2023-01-15T15:18:36.205Z,83.35
2023-01-15T15:21:12.419Z,82.71
2023-01-15T15:23:52.813Z,82.65
2023-01-15T15:26:24.973Z,82.93
2023-01-15T15:28:58.807Z,83.26
2023-01-15T15:31:26.361Z,83.07
2023-01-15T15:33:54.712Z,82.66
2023-01-15T15:36:21.580Z,83.50
2023-01-15T15:38:55.409Z,83.17
2023-01-15T15:41:42.616Z,83.82
2023-01-15T15:44:49.717Z,84.16
2023-01-15T15:47:42.030Z,83.92
2023-01-15T15:50:20.220Z,83.71
2023-01-15T15:52:48.605Z,83.89
2023-01-15T15:55:15.974Z,83.93
2023-01-15T15:57:44.791Z,83.59
2023-01-15T16:00:18.551Z,83.77
2023-01-15T16:02:45.148Z,83.61
2023-01-15T16:05:25.331Z,83.53
2023-01-15T16:07:52.662Z,83.79
2023-01-15T16:10:26.514Z,83.83
2023-01-15T16:12:53.929Z,83.68
2023-01-15T16:15:22.311Z,83.68
2023-01-15T16:17:49.576Z,83.47
2023-01-15T16:20:17.987Z,84.01
2023-01-15T16:22:45.385Z,83.91
2023-01-15T16:25:22.240Z,84.18
2023-01-15T16:30:16.085Z,84.51
2023-01-15T16:32:43.496Z,84.22
2023-01-15T16:35:18.101Z,84.35
2023-01-15T16:37:49.881Z,84.40
2023-01-15T16:40:22.554Z,84.44
2023-01-15T16:42:59.316Z,84.37
2023-01-15T16:45:26.379Z,84.56
2023-01-15T16:48:02.337Z,84.43
2023-01-15T16:50:32.672Z,83.97
2023-01-15T16:53:01.789Z,84.41
2023-01-15T16:55:34.372Z,83.83
2023-01-15T16:58:09.853Z,84.39
2023-01-15T17:00:36.233Z,84.73
2023-01-15T17:03:02.703Z,84.55
2023-01-15T17:05:29.644Z,84.59
2023-01-15T17:07:56.206Z,84.45
2023-01-15T17:10:24.042Z,84.35
2023-01-15T17:12:50.700Z,84.95
2023-01-15T17:15:17.512Z,84.68
2023-01-15T17:17:53.788Z,85.47
2023-01-15T17:20:31.461Z,84.78
2023-01-15T17:22:57.807Z,84.38
2023-01-15T17:25:24.308Z,84.65
2023-01-15T17:27:50.635Z,85.45
2023-01-15T17:30:17.451Z,84.96
2023-01-15T17:32:43.808Z,85.14
2023-01-15T17:35:30.617Z,85.22
2023-01-15T17:37:57.076Z,85.52
2023-01-15T17:40:23.668Z,85.75
2023-01-15T17:42:50.446Z,85.65
2023-01-15T17:45:18.338Z,85.55
2023-01-15T17:47:44.830Z,86.19
2023-01-15T17:50:11.411Z,86.00
2023-01-15T17:52:37.760Z,85.42
2023-01-15T17:55:23.221Z,85.61
2023-01-15T17:58:07.993Z,85.35
2023-01-15T18:00:53.326Z,85.22
2023-01-15T18:03:41.038Z,85.10
2023-01-15T18:06:09.393Z,84.79
2023-01-15T18:08:36.379Z,85.31
2023-01-15T18:11:02.737Z,85.98
2023-01-15T18:13:29.038Z,85.84
2023-01-15T18:15:55.392Z,86.11
2023-01-15T18:18:21.839Z,86.60
2023-01-15T18:20:48.214Z,86.62
2023-01-15T18:23:14.519Z,86.72
2023-01-15T18:25:46.040Z,87.11
2023-01-15T18:28:13.002Z,87.28
2023-01-15T18:30:39.656Z,87.15
2023-01-15T18:33:09.188Z,86.94
2023-01-15T18:35:35.643Z,87.25
2023-01-15T18:38:02.114Z,86.95
2023-01-15T18:40:31.677Z,87.28
2023-01-15T18:43:17.212Z,87.55
2023-01-15T18:46:05.825Z,87.77
2023-01-15T18:48:32.438Z,87.63
2023-01-15T18:51:00.220Z,87.80
2023-01-15T18:53:26.624Z,88.25
2023-01-15T18:55:52.969Z,87.86
2023-01-15T18:58:19.412Z,87.65
2023-01-15T19:00:45.774Z,87.82
2023-01-15T19:03:12.171Z,87.89
2023-01-15T19:05:38.539Z,87.26
2023-01-15T19:08:05.084Z,87.26
2023-01-15T19:10:31.466Z,86.93
2023-01-15T19:12:57.912Z,87.54
2023-01-15T19:15:42.705Z,87.02
2023-01-15T19:18:29.670Z,87.05
2023-01-15T19:20:55.991Z,87.78
2023-01-15T19:23:22.397Z,87.02
2023-01-15T19:25:49.465Z,86.94
2023-01-15T19:28:17.644Z,87.41
2023-01-15T19:31:05.132Z,86.78
2023-01-15T19:33:31.913Z,86.58
2023-01-15T19:35:58.337Z,86.83
2023-01-15T19:38:24.702Z,86.86
2023-01-15T19:40:51.152Z,87.17
2023-01-15T19:43:36.353Z,86.88
2023-01-15T19:46:22.220Z,86.33
2023-01-15T19:49:07.507Z,86.40
2023-01-15T19:51:52.493Z,86.47
2023-01-15T19:54:38.820Z,85.82
2023-01-15T19:57:05.132Z,86.35
2023-01-15T19:59:31.916Z,86.04
2023-01-15T20:01:58.355Z,85.28
2023-01-15T20:04:24.743Z,85.63
2023-01-15T20:06:53.285Z,85.71
2023-01-15T20:09:20.191Z,85.08
2023-01-15T20:12:05.466Z,85.76
2023-01-15T20:14:31.763Z,85.78
2023-01-15T20:16:58.136Z,85.77
2023-01-15T20:19:24.437Z,85.07
2023-01-15T20:21:50.787Z,85.17
2023-01-15T20:24:17.145Z,84.96
2023-01-15T20:26:43.460Z,85.49
2023-01-15T20:29:09.800Z,85.21
2023-01-15T20:31:36.234Z,85.03
2023-01-15T20:34:02.744Z,84.58
2023-01-15T20:36:33.666Z,85.42
2023-01-15T20:39:00.751Z,84.93
2023-01-15T20:41:45.925Z,84.66
2023-01-15T20:44:31.073Z,84.71
2023-01-15T20:46:57.436Z,84.64
2023-01-15T20:49:30.556Z,84.49
2023-01-15T20:51:57.584Z,84.46
2023-01-15T20:54:25.022Z,83.92
2023-01-15T20:56:51.449Z,84.50
2023-01-15T20:59:17.823Z,84.08
2023-01-15T21:01:44.236Z,84.36
2023-01-15T21:04:12.431Z,84.15
2023-01-15T21:06:38.830Z,83.84
2023-01-15T21:09:06.008Z,84.00
2023-01-15T21:11:32.402Z,84.13
2023-01-15T21:13:58.762Z,84.10
2023-01-15T21:16:25.298Z,84.51
2023-01-15T21:18:51.741Z,84.25
2023-01-15T21:21:19.053Z,84.14
2023-01-15T21:23:46.128Z,84.25
2023-01-15T21:26:13.223Z,84.18
2023-01-15T21:28:39.603Z,84.05
2023-01-15T21:31:06.947Z,83.86
2023-01-15T21:33:33.456Z,83.75
2023-01-15T21:36:04.437Z,83.60
2023-01-15T21:38:30.850Z,84.01
2023-01-15T21:40:57.160Z,83.79
2023-01-15T21:43:41.979Z,83.84
2023-01-15T21:46:08.388Z,83.75
2023-01-15T21:48:34.870Z,83.78
2023-01-15T21:51:05.450Z,83.94
2023-01-15T21:53:32.255Z,84.12
2023-01-15T21:55:58.637Z,83.67
2023-01-15T21:58:24.993Z,83.39
2023-01-15T22:00:51.402Z,83.51
2023-01-15T22:03:18.065Z,83.55
2023-01-15T22:05:44.832Z,83.91
2023-01-15T22:08:11.239Z,84.03
2023-01-15T22:10:37.619Z,83.83
2023-01-15T22:13:03.993Z,83.81
2023-01-15T22:15:30.400Z,84.10
2023-01-15T22:17:57.877Z,83.80
2023-01-15T22:20:24.303Z,83.50
2023-01-15T22:22:50.699Z,83.54
2023-01-15T22:25:17.329Z,83.61
2023-01-15T22:27:43.746Z,83.56
2023-01-15T22:30:11.129Z,83.45
2023-01-15T22:32:37.464Z,83.14
2023-01-15T22:35:04.842Z,83.49
2023-01-15T22:37:31.267Z,83.93
2023-01-15T22:39:57.673Z,83.91
2023-01-15T22:42:24.155Z,83.60
2023-01-15T22:44:51.161Z,83.41
2023-01-15T22:47:18.389Z,83.23
2023-01-15T22:49:44.939Z,83.79
2023-01-15T22:52:11.705Z,83.29
2023-01-15T22:54:38.133Z,83.38
2023-01-15T22:57:05.122Z,83.86
2023-01-15T22:59:31.461Z,83.74
2023-01-15T23:01:57.950Z,84.24
2023-01-15T23:04:24.713Z,84.13
2023-01-15T23:06:51.979Z,84.43
2023-01-15T23:09:19.048Z,84.80
2023-01-15T23:11:46.212Z,84.93
2023-01-15T23:14:13.219Z,84.95
2023-01-15T23:16:39.586Z,85.86
2023-01-15T23:19:06.220Z,84.40
2023-01-15T23:21:32.628Z,84.79
2023-01-15T23:24:00.397Z,85.17
2023-01-15T23:26:28.485Z,84.93
2023-01-15T23:28:55.024Z,84.35
2023-01-15T23:31:21.972Z,85.12
2023-01-15T23:33:48.467Z,84.64
2023-01-15T23:36:15.353Z,83.66
2023-01-15T23:38:42.797Z,84.55
2023-01-15T23:41:10.529Z,84.65
2023-01-15T23:43:56.633Z,84.75
2023-01-15T23:46:35.573Z,84.21
2023-01-15T23:49:03.315Z,84.93
2023-01-15T23:51:30.107Z,85.10
2023-01-15T23:53:57.133Z,84.89
2023-01-15T23:56:23.725Z,85.16
2023-01-15T23:58:50.123Z,84.85
